Time;durP1;ratioP1;P1;durP2;ratioP2;P2;SDS_P1;SDS_P2;PMS_P1;PMS_P2;Temp;Humidity;BMP_temperature;BMP_pressure;BME280_temperature;BME280_humidity;BME280_pressure;Samples;Min_cycle;Max_cycle;Signal;HPM_P1;HPM_P2
2024/02/04 00:00:28;;;;;;;6.35;4.70;;;9.40;99.90;;;;;;5064387;28;20035;-64
2024/02/04 00:02:54;;;;;;;6.50;4.82;;;9.30;99.90;;;;;;5063859;28;20047;-63
2024/02/04 00:05:20;;;;;;;6.18;4.38;;;9.30;99.90;;;;;;5066818;28;20032;-64
2024/02/04 00:07:46;;;;;;;6.43;4.38;;;9.30;99.90;;;;;;5067093;28;20043;-64
2024/02/04 00:10:12;;;;;;;5.80;3.95;;;9.40;99.90;;;;;;5070653;28;20025;-62
2024/02/04 00:12:39;;;;;;;4.88;3.45;;;9.40;99.90;;;;;;5071687;28;20358;-61
2024/02/04 00:15:05;;;;;;;5.85;3.83;;;9.30;99.90;;;;;;5038028;27;20044;-64
2024/02/04 00:17:33;;;;;;;5.68;3.17;;;9.30;99.90;;;;;;5066175;28;20027;-64
2024/02/04 00:20:05;;;;;;;4.57;3.05;;;9.30;99.90;;;;;;5069277;28;20013;-64
2024/02/04 00:22:31;;;;;;;4.00;2.95;;;9.30;99.90;;;;;;5070753;28;20070;-64
2024/02/04 00:25:01;;;;;;;3.33;2.72;;;9.30;99.90;;;;;;5070870;28;20044;-64
2024/02/04 00:27:27;;;;;;;3.67;2.55;;;9.30;99.90;;;;;;5067929;28;20082;-64
2024/02/04 00:29:52;;;;;;;6.55;2.40;;;9.20;99.90;;;;;;5069184;28;20439;-61
2024/02/04 00:32:18;;;;;;;3.25;2.42;;;9.20;99.90;;;;;;5071270;28;20478;-64
2024/02/04 00:34:43;;;;;;;3.95;2.50;;;9.20;99.90;;;;;;5071135;28;20027;-64
2024/02/04 00:37:09;;;;;;;3.95;2.53;;;9.20;99.90;;;;;;5071429;28;20028;-66
2024/02/04 00:39:35;;;;;;;2.72;2.25;;;9.20;99.90;;;;;;5070192;28;20463;-61
2024/02/04 00:42:00;;;;;;;3.25;2.60;;;9.20;99.90;;;;;;5069881;28;20050;-64
2024/02/04 00:44:26;;;;;;;3.33;2.65;;;9.20;99.90;;;;;;5068334;28;20051;-64
2024/02/04 00:46:51;;;;;;;3.53;2.80;;;9.20;99.90;;;;;;5069465;28;20021;-65
2024/02/04 00:49:17;;;;;;;4.05;2.90;;;9.20;99.90;;;;;;5071103;28;20312;-67
2024/02/04 00:51:42;;;;;;;4.18;3.13;;;9.20;99.90;;;;;;5069008;28;20052;-64
2024/02/04 00:54:08;;;;;;;5.13;3.85;;;9.20;99.90;;;;;;5068054;28;20036;-64
2024/02/04 00:56:34;;;;;;;4.35;3.55;;;9.20;99.90;;;;;;5065685;28;20528;-64
2024/02/04 00:58:59;;;;;;;6.65;4.30;;;9.20;99.90;;;;;;5066531;28;20029;-63
2024/02/04 01:01:25;;;;;;;5.68;4.28;;;9.20;99.90;;;;;;5069774;28;20051;-63
2024/02/04 01:03:51;;;;;;;6.20;4.50;;;9.20;99.90;;;;;;5071131;28;20119;-63
2024/02/04 01:06:16;;;;;;;7.10;4.43;;;9.20;99.90;;;;;;5064869;28;20170;-63
2024/02/04 01:08:42;;;;;;;7.25;4.43;;;9.20;99.90;;;;;;5064964;28;20037;-63
2024/02/04 01:11:08;;;;;;;5.78;4.43;;;9.20;99.90;;;;;;5067735;28;20033;-63
2024/02/04 01:13:33;;;;;;;6.82;4.47;;;9.20;99.90;;;;;;5069163;28;20020;-63
2024/02/04 01:15:59;;;;;;;4.32;3.13;;;9.20;99.90;;;;;;5039575;28;20029;-63
2024/02/04 01:18:25;;;;;;;5.93;3.30;;;9.20;99.90;;;;;;5067576;28;20029;-63
2024/02/04 01:20:50;;;;;;;5.53;2.88;;;9.20;99.90;;;;;;5068178;28;20494;-63
2024/02/04 01:23:19;;;;;;;3.67;2.83;;;9.20;99.90;;;;;;5069029;28;20477;-63
2024/02/04 01:25:45;;;;;;;4.35;3.00;;;9.20;99.90;;;;;;5069962;28;20031;-63
2024/02/04 01:28:11;;;;;;;8.63;3.22;;;9.10;99.90;;;;;;5070493;28;20307;-63
2024/02/04 01:30:37;;;;;;;3.28;2.45;;;9.20;99.90;;;;;;5068012;28;20040;-63
2024/02/04 01:33:03;;;;;;;3.83;3.30;;;9.10;99.90;;;;;;5068937;28;20017;-63
2024/02/04 01:35:28;;;;;;;5.43;4.00;;;9.20;99.90;;;;;;5069164;28;20103;-63
2024/02/04 01:37:54;;;;;;;4.82;3.72;;;9.10;99.90;;;;;;5069405;28;20390;-63
2024/02/04 01:40:20;;;;;;;5.03;3.78;;;9.10;99.90;;;;;;5070351;28;20028;-63
2024/02/04 01:42:46;;;;;;;6.05;3.78;;;9.10;99.90;;;;;;5069668;28;20027;-63
2024/02/04 01:45:11;;;;;;;4.35;3.35;;;9.10;99.90;;;;;;5067249;28;20051;-63
2024/02/04 01:47:37;;;;;;;5.70;3.40;;;9.10;99.90;;;;;;5059011;28;20075;-63
2024/02/04 01:50:03;;;;;;;4.45;3.15;;;9.10;99.90;;;;;;5069152;28;20032;-63
2024/02/04 01:52:32;;;;;;;11.50;3.40;;;9.10;99.90;;;;;;5070223;28;20501;-64
2024/02/04 01:54:59;;;;;;;3.85;3.10;;;9.10;99.90;;;;;;5068915;28;20386;-63
2024/02/04 01:57:24;;;;;;;3.72;2.58;;;9.10;99.90;;;;;;5067212;28;20013;-63
2024/02/04 01:59:53;;;;;;;4.13;3.35;;;9.10;99.90;;;;;;5066502;28;20024;-63
2024/02/04 02:02:19;;;;;;;2.47;2.17;;;9.10;99.90;;;;;;5066473;28;20025;-63
2024/02/04 02:04:46;;;;;;;2.42;2.00;;;9.10;99.90;;;;;;5050511;28;20067;-63
2024/02/04 02:07:15;;;;;;;4.07;1.98;;;9.10;99.90;;;;;;5070229;28;20040;-63
2024/02/04 02:09:41;;;;;;;2.13;1.88;;;9.10;99.90;;;;;;5069125;28;20039;-63
2024/02/04 02:12:17;;;;;;;3.28;1.92;;;9.10;99.90;;;;;;5069135;28;20020;-63
2024/02/04 02:14:50;;;;;;;2.60;1.88;;;9.10;99.90;;;;;;5066799;28;20031;-63
2024/02/04 02:17:21;;;;;;;4.00;2.05;;;9.10;99.90;;;;;;5038816;28;20044;-63
2024/02/04 02:20:08;;;;;;;2.45;2.13;;;9.20;99.90;;;;;;5068352;28;20028;-63
2024/02/04 02:22:50;;;;;;;3.55;2.22;;;9.10;99.90;;;;;;5066796;28;20019;-63
2024/02/04 02:25:19;;;;;;;2.83;2.33;;;9.20;99.90;;;;;;5067260;28;20028;-63
2024/02/04 02:27:51;;;;;;;3.25;2.30;;;9.10;99.90;;;;;;5065319;28;20016;-63
2024/02/04 02:30:17;;;;;;;3.70;3.20;;;9.20;99.90;;;;;;5063627;28;20067;-63
2024/02/04 02:32:44;;;;;;;4.35;2.88;;;9.20;99.90;;;;;;5066619;28;20100;-62
2024/02/04 02:35:12;;;;;;;4.40;3.45;;;9.20;99.90;;;;;;5069099;28;20430;-63
2024/02/04 02:37:46;;;;;;;3.70;2.75;;;9.20;99.90;;;;;;5047885;28;20028;-63
2024/02/04 02:40:22;;;;;;;5.43;3.60;;;9.20;99.90;;;;;;5069620;28;20021;-63
2024/02/04 02:42:48;;;;;;;4.82;3.30;;;9.10;99.90;;;;;;5068713;28;20027;-63
2024/02/04 02:45:16;;;;;;;5.88;3.42;;;9.20;99.90;;;;;;5065498;28;20029;-63
2024/02/04 02:47:44;;;;;;;4.85;3.92;;;9.20;99.90;;;;;;5067584;28;20525;-63
2024/02/04 02:50:10;;;;;;;6.20;4.32;;;9.20;99.90;;;;;;5069462;28;20044;-63
2024/02/04 02:52:35;;;;;;;5.32;3.90;;;9.20;99.90;;;;;;5070705;28;20386;-64
2024/02/04 02:55:01;;;;;;;5.35;4.28;;;9.20;99.90;;;;;;5073341;28;20029;-63
2024/02/04 02:57:27;;;;;;;9.82;5.05;;;9.20;99.90;;;;;;5071354;28;20028;-63
2024/02/04 02:59:52;;;;;;;8.18;4.60;;;9.20;99.90;;;;;;5073295;28;20131;-63
2024/02/04 03:02:18;;;;;;;6.60;4.65;;;9.20;99.90;;;;;;5073178;28;20024;-63
2024/02/04 03:04:44;;;;;;;6.25;4.65;;;9.20;99.90;;;;;;5072766;28;20021;-63
2024/02/04 03:07:10;;;;;;;6.88;5.35;;;9.30;99.90;;;;;;5067778;28;20434;-63
2024/02/04 03:09:35;;;;;;;6.30;4.82;;;9.20;99.90;;;;;;5061112;28;20082;-62
2024/02/04 03:12:01;;;;;;;9.95;5.07;;;9.20;99.90;;;;;;5063824;28;20032;-63
2024/02/04 03:14:26;;;;;;;7.32;5.35;;;9.20;99.90;;;;;;5064246;28;20497;-62
2024/02/04 03:16:52;;;;;;;7.80;5.13;;;9.30;99.90;;;;;;5012222;28;20533;-63
2024/02/04 03:19:18;;;;;;;8.43;6.03;;;9.20;99.90;;;;;;5058582;28;20372;-63
2024/02/04 03:21:43;;;;;;;9.00;5.20;;;9.20;99.90;;;;;;5064442;28;20031;-63
2024/02/04 03:24:09;;;;;;;7.25;6.15;;;9.30;99.90;;;;;;5065305;28;20028;-63
2024/02/04 03:26:35;;;;;;;9.40;5.63;;;9.30;99.90;;;;;;5069865;28;20033;-63
2024/02/04 03:29:00;;;;;;;8.35;4.95;;;9.30;99.90;;;;;;5071125;28;20036;-62
2024/02/04 03:31:26;;;;;;;7.18;5.40;;;9.30;99.90;;;;;;5070677;28;20123;-63
2024/02/04 03:33:51;;;;;;;9.05;4.70;;;9.30;99.90;;;;;;5066660;28;20024;-63
2024/02/04 03:36:23;;;;;;;9.02;5.93;;;9.30;99.90;;;;;;5063792;28;20032;-63
2024/02/04 03:38:49;;;;;;;10.85;5.03;;;9.30;99.90;;;;;;5065568;28;20025;-63
2024/02/04 03:41:15;;;;;;;6.30;4.68;;;9.30;99.90;;;;;;5065846;28;20371;-63
2024/02/04 03:43:41;;;;;;;8.68;4.60;;;9.40;99.90;;;;;;5062503;28;20086;-63
2024/02/04 03:46:06;;;;;;;5.93;4.25;;;9.30;99.90;;;;;;5061718;28;20024;-63
2024/02/04 03:48:33;;;;;;;5.63;3.72;;;9.40;99.90;;;;;;5046431;28;20032;-63
2024/02/04 03:50:59;;;;;;;6.35;4.05;;;9.30;99.90;;;;;;5053052;28;20040;-63
2024/02/04 03:53:25;;;;;;;6.07;4.13;;;9.40;99.90;;;;;;5047402;28;20028;-62
2024/02/04 03:55:51;;;;;;;5.53;3.50;;;9.40;99.90;;;;;;5050945;28;20147;-63
2024/02/04 03:58:17;;;;;;;7.40;4.40;;;9.40;99.90;;;;;;5063159;28;20028;-63
2024/02/04 04:00:42;;;;;;;6.43;3.47;;;9.40;99.90;;;;;;5044939;28;20032;-64
2024/02/04 04:03:08;;;;;;;4.38;3.20;;;9.40;99.90;;;;;;5064089;28;20047;-63
2024/02/04 04:05:33;;;;;;;6.90;3.40;;;9.40;99.90;;;;;;5071258;28;20032;-63
2024/02/04 04:07:59;;;;;;;6.22;3.83;;;9.40;99.90;;;;;;5069578;28;20386;-63
2024/02/04 04:10:25;;;;;;;6.00;4.05;;;9.40;99.90;;;;;;5070677;28;20028;-63
2024/02/04 04:12:50;;;;;;;6.13;4.15;;;9.40;99.90;;;;;;5069868;28;20036;-63
2024/02/04 04:15:16;;;;;;;8.95;4.60;;;9.40;99.90;;;;;;5069442;28;20048;-63
2024/02/04 04:17:42;;;;;;;6.30;4.00;;;9.40;99.90;;;;;;5026362;28;20036;-64
2024/02/04 04:20:08;;;;;;;5.97;3.63;;;9.40;99.90;;;;;;5053716;28;20025;-63
2024/02/04 04:22:33;;;;;;;6.35;4.07;;;9.50;99.90;;;;;;5062663;28;20020;-63
2024/02/04 04:27:27;;;;;;;7.10;4.68;;;9.50;99.90;;;;;;5060827;28;20044;-81
2024/02/04 04:29:53;;;;;;;8.10;5.15;;;9.50;99.90;;;;;;5069946;28;20025;-81
2024/02/04 04:32:18;;;;;;;8.75;4.95;;;9.50;99.90;;;;;;5053804;28;20023;-82
2024/02/04 04:34:44;;;;;;;9.85;5.28;;;9.40;99.90;;;;;;5053176;28;20611;-82
2024/02/04 04:37:10;;;;;;;7.68;5.10;;;9.50;99.90;;;;;;5068606;28;20029;-81
2024/02/04 04:39:35;;;;;;;8.52;5.55;;;9.50;99.90;;;;;;5051848;28;20028;-82
2024/02/04 04:42:01;;;;;;;11.35;5.10;;;9.50;99.90;;;;;;5076643;28;20021;-82
2024/02/04 04:44:27;;;;;;;7.50;4.38;;;9.50;99.90;;;;;;5055519;28;20032;-82
2024/02/04 04:46:53;;;;;;;9.38;5.45;;;9.50;99.90;;;;;;5055984;28;20028;-83
2024/02/04 04:49:18;;;;;;;12.52;4.80;;;9.50;99.90;;;;;;5060546;28;20119;-82
2024/02/04 04:51:48;;;;;;;9.25;5.43;;;9.50;99.90;;;;;;5051694;28;20051;-81
2024/02/04 04:54:14;;;;;;;6.55;4.38;;;9.50;99.90;;;;;;5050291;28;20028;-82
2024/02/04 04:56:40;;;;;;;8.85;5.07;;;9.50;99.90;;;;;;5053388;28;20445;-81
2024/02/04 04:59:09;;;;;;;8.10;5.20;;;9.50;99.90;;;;;;5055157;28;20032;-82
2024/02/04 05:01:35;;;;;;;7.70;4.32;;;9.50;99.90;;;;;;5073648;28;20032;-83
2024/02/04 05:04:01;;;;;;;8.13;5.00;;;9.50;99.90;;;;;;5056779;28;20024;-82
2024/02/04 05:06:26;;;;;;;9.68;5.20;;;9.50;99.90;;;;;;5069884;28;20343;-82
2024/02/04 05:08:52;;;;;;;11.02;5.25;;;9.50;99.90;;;;;;5077382;28;20092;-82
2024/02/04 05:11:18;;;;;;;12.77;4.70;;;9.50;99.90;;;;;;5074718;28;20051;-82
2024/02/04 05:13:44;;;;;;;10.43;4.88;;;9.50;99.90;;;;;;5044712;28;20033;-81
2024/02/04 05:16:09;;;;;;;10.65;4.95;;;9.50;99.90;;;;;;5057362;28;20025;-81
2024/02/04 05:18:35;;;;;;;8.00;4.45;;;9.50;99.90;;;;;;5024756;28;20060;-81
2024/02/04 05:21:02;;;;;;;11.23;4.55;;;9.50;99.90;;;;;;5070172;28;20155;-81
2024/02/04 05:23:28;;;;;;;8.82;4.53;;;9.50;99.90;;;;;;5050776;28;20029;-81
2024/02/04 05:25:54;;;;;;;7.88;4.70;;;9.50;99.90;;;;;;5053025;28;20498;-81
2024/02/04 05:28:19;;;;;;;9.27;5.32;;;9.50;99.90;;;;;;5053484;28;20385;-81
2024/02/04 05:30:45;;;;;;;12.07;4.47;;;9.50;99.90;;;;;;5051872;28;20123;-81
2024/02/04 05:33:14;;;;;;;10.13;4.93;;;9.50;99.90;;;;;;5070971;28;20213;-82
2024/02/04 05:35:42;;;;;;;8.40;5.18;;;9.50;99.90;;;;;;5068248;28;20548;-81
2024/02/04 05:38:09;;;;;;;8.82;6.07;;;9.50;99.90;;;;;;5050803;28;20033;-81
2024/02/04 05:40:38;;;;;;;9.40;5.30;;;9.50;99.90;;;;;;5052974;28;20043;-81
2024/02/04 05:43:07;;;;;;;8.77;5.25;;;9.50;99.90;;;;;;5047597;28;20037;-82
2024/02/04 05:45:40;;;;;;;8.40;5.75;;;9.50;99.90;;;;;;5051773;28;20028;-81
2024/02/04 05:48:09;;;;;;;10.02;5.95;;;9.50;99.90;;;;;;5071367;28;20115;-81
2024/02/04 05:50:36;;;;;;;8.75;5.45;;;9.50;99.90;;;;;;5067259;28;20025;-82
2024/02/04 05:53:02;;;;;;;7.97;5.35;;;9.50;99.90;;;;;;5053082;28;21599;-81
2024/02/04 05:55:28;;;;;;;9.45;5.53;;;9.50;99.90;;;;;;5049913;28;20094;-81
2024/02/04 05:57:54;;;;;;;10.40;6.10;;;9.50;99.90;;;;;;5053213;28;20381;-81
2024/02/04 06:00:20;;;;;;;11.80;6.30;;;9.50;99.90;;;;;;5051979;28;20024;-81
2024/02/04 06:02:46;;;;;;;14.82;5.95;;;9.50;99.90;;;;;;5069719;28;20361;-82
2024/02/04 06:05:13;;;;;;;9.95;5.85;;;9.50;99.90;;;;;;5052120;28;20508;-81
2024/02/04 06:07:39;;;;;;;11.45;6.43;;;9.50;99.90;;;;;;5049099;28;20021;-81
2024/02/04 06:10:05;;;;;;;10.32;5.65;;;9.50;99.90;;;;;;5050745;28;20036;-81
2024/02/04 06:12:31;;;;;;;13.68;5.93;;;9.50;99.90;;;;;;5065386;28;20696;-81
2024/02/04 06:14:57;;;;;;;12.25;6.32;;;9.50;99.90;;;;;;5050475;28;20044;-81
2024/02/04 06:17:22;;;;;;;8.48;4.90;;;9.50;99.90;;;;;;5046695;28;20064;-82
2024/02/04 06:19:48;;;;;;;10.68;5.20;;;9.40;99.90;;;;;;5064088;28;20112;-81
2024/02/04 06:22:15;;;;;;;8.18;5.07;;;9.50;99.90;;;;;;5046979;28;20538;-81
2024/02/04 06:24:41;;;;;;;8.10;4.70;;;9.50;99.90;;;;;;5054262;28;20120;-82
2024/02/04 06:27:11;;;;;;;9.77;4.97;;;9.50;99.90;;;;;;5055629;28;20128;-81
2024/02/04 06:29:37;;;;;;;9.52;5.15;;;9.50;99.90;;;;;;5055565;28;20054;-82
2024/02/04 06:32:03;;;;;;;8.50;4.32;;;9.50;99.90;;;;;;5052805;28;20247;-82
2024/02/04 06:34:29;;;;;;;7.68;4.32;;;9.50;99.90;;;;;;5056794;28;20077;-82
2024/02/04 06:36:54;;;;;;;7.57;3.80;;;9.40;99.90;;;;;;5054429;28;20166;-82
2024/02/04 06:39:20;;;;;;;6.75;4.22;;;9.50;99.90;;;;;;5072708;28;20020;-82
2024/02/04 06:41:46;;;;;;;7.10;4.97;;;9.50;99.90;;;;;;5056238;28;20062;-81
2024/02/04 06:44:12;;;;;;;12.00;4.50;;;9.50;99.90;;;;;;5052911;28;20044;-81
2024/02/04 06:46:37;;;;;;;9.13;5.43;;;9.50;99.90;;;;;;5053671;28;20490;-81
2024/02/04 06:49:03;;;;;;;10.07;5.50;;;9.50;99.90;;;;;;5052954;28;20025;-82
2024/02/04 06:51:29;;;;;;;13.15;6.60;;;9.50;99.90;;;;;;5053719;28;20150;-82
2024/02/04 06:53:55;;;;;;;13.35;7.60;;;9.40;99.90;;;;;;5059891;28;20104;-82
2024/02/04 06:56:20;;;;;;;13.15;7.60;;;9.50;99.90;;;;;;5054748;28;20025;-81
2024/02/04 06:58:46;;;;;;;14.27;7.70;;;9.50;99.90;;;;;;5063262;28;20088;-83
2024/02/04 07:01:12;;;;;;;21.63;8.30;;;9.50;99.90;;;;;;5087102;28;20028;-82
2024/02/04 07:03:38;;;;;;;13.65;7.57;;;9.50;99.90;;;;;;5068798;28;20580;-82
2024/02/04 07:06:04;;;;;;;16.55;6.82;;;9.50;99.90;;;;;;5058378;28;20023;-82
2024/02/04 07:08:30;;;;;;;19.42;7.72;;;9.50;99.90;;;;;;5057416;28;20039;-82
2024/02/04 07:10:55;;;;;;;13.68;7.60;;;9.50;99.90;;;;;;5076608;28;20477;-82
2024/02/04 07:13:21;;;;;;;14.50;6.80;;;9.50;99.90;;;;;;5057863;28;20067;-81
2024/02/04 07:15:47;;;;;;;11.70;6.13;;;9.50;99.90;;;;;;5056742;28;20028;-82
2024/02/04 07:18:13;;;;;;;12.45;5.88;;;9.50;99.90;;;;;;5073028;28;20055;-82
2024/02/04 07:20:39;;;;;;;10.88;5.88;;;9.60;99.90;;;;;;5059107;28;20028;-82
2024/02/04 07:23:05;;;;;;;10.90;5.80;;;9.60;99.90;;;;;;5060442;28;20021;-83
2024/02/04 07:25:32;;;;;;;8.52;5.25;;;9.60;99.90;;;;;;5079222;28;20031;-83
2024/02/04 07:27:58;;;;;;;8.68;5.28;;;9.50;99.90;;;;;;5058229;28;20037;-82
2024/02/04 07:30:24;;;;;;;9.30;4.10;;;9.60;99.90;;;;;;5074024;28;20025;-82
2024/02/04 07:32:49;;;;;;;6.35;4.03;;;9.50;99.90;;;;;;5074738;28;20028;-82
2024/02/04 07:35:15;;;;;;;6.82;4.20;;;9.60;99.90;;;;;;5056468;28;20039;-81
2024/02/04 07:37:41;;;;;;;10.02;4.50;;;9.60;99.90;;;;;;5056088;28;20035;-81
2024/02/04 07:40:07;;;;;;;6.15;4.05;;;9.50;99.90;;;;;;5056663;28;20028;-82
2024/02/04 07:42:33;;;;;;;6.30;4.05;;;9.50;99.90;;;;;;5052359;28;20032;-83
2024/02/04 07:44:59;;;;;;;9.18;3.75;;;9.60;99.90;;;;;;5053863;28;20020;-83
2024/02/04 07:47:24;;;;;;;4.25;3.33;;;9.60;99.90;;;;;;5058065;28;20070;-83
2024/02/04 07:49:50;;;;;;;5.10;3.35;;;9.60;99.90;;;;;;5072975;28;20029;-81
2024/02/04 07:52:16;;;;;;;3.90;2.63;;;9.60;99.90;;;;;;5061014;28;20035;-81
2024/02/04 07:54:43;;;;;;;7.03;2.60;;;9.60;99.90;;;;;;5076747;28;20036;-82
2024/02/04 07:57:12;;;;;;;3.22;2.17;;;9.60;99.90;;;;;;5075011;28;20028;-84
2024/02/04 07:59:38;;;;;;;2.90;2.13;;;9.60;99.90;;;;;;5056071;28;20143;-82
2024/02/04 08:02:04;;;;;;;3.20;1.85;;;9.50;99.90;;;;;;5054984;28;20479;-83
2024/02/04 08:04:30;;;;;;;3.00;1.70;;;9.60;99.90;;;;;;5074317;28;20032;-83
2024/02/04 08:06:56;;;;;;;2.03;1.58;;;9.60;99.90;;;;;;5055997;28;20387;-83
2024/02/04 08:09:21;;;;;;;2.33;1.92;;;9.60;99.90;;;;;;5056778;28;20028;-83
2024/02/04 08:11:47;;;;;;;5.72;2.90;;;9.60;99.90;;;;;;5072358;28;20092;-82
2024/02/04 08:14:17;;;;;;;4.35;1.58;;;9.60;99.90;;;;;;5055691;28;20390;-82
2024/02/04 08:16:43;;;;;;;3.95;1.70;;;9.60;99.90;;;;;;5060657;28;20032;-83
2024/02/04 08:19:09;;;;;;;3.17;2.20;;;9.60;99.90;;;;;;5056374;28;20025;-83
2024/02/04 08:21:34;;;;;;;3.88;2.45;;;9.60;99.90;;;;;;5057966;28;20024;-83
2024/02/04 08:24:00;;;;;;;1.83;1.48;;;9.70;99.90;;;;;;5060334;28;20024;-83
2024/02/04 08:26:26;;;;;;;3.55;1.95;;;9.70;99.90;;;;;;5058018;28;20388;-83
2024/02/04 08:28:51;;;;;;;3.50;2.58;;;9.70;99.90;;;;;;5075902;28;20032;-83
2024/02/04 08:31:17;;;;;;;3.80;2.35;;;9.70;99.90;;;;;;5059322;28;20495;-81
2024/02/04 08:33:43;;;;;;;4.60;3.28;;;9.70;99.90;;;;;;5055233;28;20052;-81
2024/02/04 08:36:10;;;;;;;3.25;2.67;;;9.70;99.90;;;;;;5057827;28;20032;-82
2024/02/04 08:38:37;;;;;;;5.25;3.80;;;9.70;99.90;;;;;;5059531;28;20515;-83
2024/02/04 08:41:03;;;;;;;11.85;5.75;;;9.70;99.90;;;;;;5055665;28;20151;-83
2024/02/04 08:43:29;;;;;;;3.13;2.20;;;9.80;99.90;;;;;;5074080;28;20017;-84
2024/02/04 08:45:55;;;;;;;3.58;2.53;;;9.80;99.90;;;;;;5055725;28;20062;-83
2024/02/04 08:48:20;;;;;;;3.17;2.10;;;9.80;99.90;;;;;;5066717;28;20540;-82
2024/02/04 08:50:46;;;;;;;3.47;2.15;;;9.80;99.90;;;;;;5067682;28;20040;-83
2024/02/04 08:53:12;;;;;;;4.28;3.00;;;9.80;99.90;;;;;;5072596;28;20036;-83
2024/02/04 08:55:37;;;;;;;6.10;3.17;;;9.90;99.90;;;;;;5051563;28;20028;-81
2024/02/04 08:58:03;;;;;;;4.82;2.30;;;9.90;99.90;;;;;;5054122;28;20028;-81
2024/02/04 09:00:29;;;;;;;5.47;3.20;;;9.90;99.90;;;;;;5051606;28;20024;-81
2024/02/04 09:02:55;;;;;;;5.45;2.67;;;9.90;99.90;;;;;;5056281;28;20032;-81
2024/02/04 09:05:21;;;;;;;4.97;2.55;;;9.90;99.90;;;;;;5058775;28;20093;-81
2024/02/04 09:07:47;;;;;;;6.30;2.85;;;9.90;99.90;;;;;;5056385;28;20032;-82
2024/02/04 09:10:13;;;;;;;4.10;2.80;;;9.90;99.90;;;;;;5058417;28;20020;-81
2024/02/04 09:12:39;;;;;;;4.85;2.70;;;10.00;99.90;;;;;;5033306;22;20517;-56
2024/02/04 09:15:05;;;;;;;3.72;2.58;;;9.90;99.90;;;;;;5035141;28;20037;-57
2024/02/04 09:17:33;;;;;;;5.13;2.88;;;10.00;99.90;;;;;;5054660;28;20494;-55
2024/02/04 09:19:59;;;;;;;4.30;2.70;;;10.00;99.90;;;;;;5054917;28;20445;-58
2024/02/04 09:22:25;;;;;;;3.85;2.72;;;10.00;99.90;;;;;;5048332;28;20418;-55
2024/02/04 09:24:50;;;;;;;9.68;4.60;;;10.00;99.90;;;;;;5056571;28;20029;-57
2024/02/04 09:27:16;;;;;;;19.90;8.48;;;10.00;99.90;;;;;;5051331;28;20029;-60
2024/02/04 09:29:41;;;;;;;6.00;3.40;;;10.10;99.90;;;;;;5054124;28;20027;-60
2024/02/04 09:32:07;;;;;;;4.25;2.90;;;10.10;99.90;;;;;;5049496;28;20025;-61
2024/02/04 09:34:33;;;;;;;4.95;3.70;;;10.10;99.90;;;;;;5046591;28;20029;-61
2024/02/04 09:36:59;;;;;;;4.65;3.13;;;10.10;99.90;;;;;;5049251;28;20033;-60
2024/02/04 09:39:24;;;;;;;3.47;2.78;;;10.10;99.90;;;;;;5047514;28;20032;-60
2024/02/04 09:41:50;;;;;;;6.75;3.42;;;10.10;99.90;;;;;;5043651;28;20033;-60
2024/02/04 09:44:16;;;;;;;5.30;3.88;;;10.10;99.90;;;;;;5043202;28;20020;-61
2024/02/04 09:46:42;;;;;;;6.68;3.60;;;10.10;99.90;;;;;;5043246;28;20079;-60
2024/02/04 09:49:09;;;;;;;4.85;3.58;;;10.10;99.90;;;;;;5044506;28;20028;-59
2024/02/04 09:51:34;;;;;;;10.18;4.38;;;10.10;99.90;;;;;;5042974;28;20075;-60
2024/02/04 09:54:06;;;;;;;4.90;3.53;;;10.10;99.90;;;;;;5043482;28;20040;-57
2024/02/04 09:56:32;;;;;;;4.85;3.75;;;10.20;99.90;;;;;;5041172;28;20187;-60
2024/02/04 09:58:58;;;;;;;7.20;4.70;;;10.20;99.90;;;;;;5045322;28;20033;-60
2024/02/04 10:01:24;;;;;;;17.35;7.63;;;10.30;99.90;;;;;;5047587;28;20033;-61
2024/02/04 10:03:50;;;;;;;4.95;3.50;;;10.40;99.90;;;;;;5047101;28;20033;-61
2024/02/04 10:06:16;;;;;;;4.68;2.63;;;10.40;99.90;;;;;;5046809;28;20405;-61
2024/02/04 10:08:43;;;;;;;4.38;2.80;;;10.40;99.90;;;;;;5047225;28;20052;-61
2024/02/04 10:11:09;;;;;;;3.80;2.53;;;10.40;99.90;;;;;;5047322;28;20044;-60
2024/02/04 10:13:45;;;;;;;5.18;4.38;;;10.40;99.90;;;;;;5047025;28;20036;-60
2024/02/04 10:16:12;;;;;;;5.63;3.65;;;10.50;99.90;;;;;;5053419;28;20076;-61
2024/02/04 10:18:41;;;;;;;5.15;3.75;;;10.50;99.90;;;;;;5051891;28;20025;-60
2024/02/04 10:21:18;;;;;;;5.38;3.75;;;10.50;99.90;;;;;;5051910;28;20025;-61
2024/02/04 10:23:43;;;;;;;7.32;3.58;;;10.60;99.90;;;;;;5052019;28;20057;-60
2024/02/04 10:26:09;;;;;;;4.43;2.15;;;10.60;99.90;;;;;;5031624;28;20099;-61
2024/02/04 10:28:36;;;;;;;4.10;2.67;;;10.60;99.90;;;;;;5053305;28;20129;-59
2024/02/04 10:31:02;;;;;;;3.70;2.47;;;10.50;99.90;;;;;;5051826;28;20074;-60
2024/02/04 10:33:31;;;;;;;21.88;9.48;;;10.60;99.90;;;;;;5049117;28;20486;-60
2024/02/04 10:35:57;;;;;;;5.50;3.25;;;10.60;99.90;;;;;;5045799;28;20771;-59
2024/02/04 10:38:24;;;;;;;7.00;3.40;;;10.70;99.90;;;;;;5052829;28;20021;-60
2024/02/04 10:40:53;;;;;;;4.65;2.70;;;10.70;99.90;;;;;;5053515;28;20039;-60
2024/02/04 10:43:20;;;;;;;3.65;2.90;;;10.60;99.90;;;;;;5053695;28;20029;-59
2024/02/04 10:45:48;;;;;;;3.10;2.38;;;10.60;99.90;;;;;;5053237;28;20511;-60
2024/02/04 10:48:19;;;;;;;4.28;3.13;;;10.60;99.90;;;;;;5053403;28;20036;-59
2024/02/04 10:50:46;;;;;;;5.03;3.35;;;10.50;99.90;;;;;;5052026;28;20064;-59
2024/02/04 10:53:14;;;;;;;3.42;2.67;;;10.60;99.90;;;;;;5052895;28;20116;-61
2024/02/04 10:55:44;;;;;;;3.72;2.10;;;10.50;99.90;;;;;;5053429;28;20028;-60
2024/02/04 10:58:16;;;;;;;5.22;3.30;;;10.50;99.90;;;;;;5053849;28;20033;-60
2024/02/04 11:00:43;;;;;;;3.92;2.88;;;10.40;99.90;;;;;;5053449;28;20389;-59
2024/02/04 11:03:09;;;;;;;4.15;2.88;;;10.40;99.90;;;;;;5054976;28;20086;-59
2024/02/04 11:05:36;;;;;;;5.00;2.53;;;10.40;99.90;;;;;;5052536;28;20667;-61
2024/02/04 11:08:04;;;;;;;5.15;2.65;;;10.40;99.90;;;;;;5050857;28;20032;-60
2024/02/04 11:10:31;;;;;;;6.43;2.85;;;10.50;99.90;;;;;;5051865;28;20029;-60
2024/02/04 11:12:58;;;;;;;3.47;2.63;;;10.50;99.90;;;;;;5053283;28;20094;-61
2024/02/04 11:15:29;;;;;;;6.07;2.97;;;10.50;99.90;;;;;;5053904;28;20415;-61
2024/02/04 11:18:30;;;;;;;5.03;2.60;;;10.50;99.90;;;;;;5053131;28;20032;-59
2024/02/04 11:21:14;;;;;;;3.15;2.10;;;10.50;99.90;;;;;;5051240;28;21358;-57
2024/02/04 11:24:10;;;;;;;2.75;2.15;;;10.50;99.90;;;;;;5052490;28;20035;-61
2024/02/04 11:26:40;;;;;;;3.00;2.47;;;10.50;99.90;;;;;;5031913;28;20507;-60
2024/02/04 11:29:07;;;;;;;3.17;2.38;;;10.40;99.90;;;;;;5053968;28;20371;-59
2024/02/04 11:31:32;;;;;;;4.20;2.95;;;10.40;99.90;;;;;;5055761;28;20470;-60
2024/02/04 11:33:58;;;;;;;3.58;2.38;;;10.40;99.90;;;;;;5052745;28;20086;-58
2024/02/04 11:36:25;;;;;;;7.45;3.45;;;10.40;99.90;;;;;;5052147;28;20495;-61
2024/02/04 11:38:52;;;;;;;3.47;2.70;;;10.40;99.90;;;;;;5052122;28;20467;-59
2024/02/04 11:41:25;;;;;;;3.30;2.65;;;10.50;99.90;;;;;;5052820;28;20029;-61
2024/02/04 11:43:55;;;;;;;3.47;2.88;;;10.60;99.90;;;;;;5051552;28;20075;-60
2024/02/04 11:46:21;;;;;;;2.72;2.47;;;10.60;99.90;;;;;;5050377;28;20410;-60
2024/02/04 11:48:53;;;;;;;3.38;2.80;;;10.60;99.90;;;;;;5050057;28;20029;-61
2024/02/04 11:51:24;;;;;;;3.80;2.80;;;10.60;99.90;;;;;;5048905;28;20025;-60
2024/02/04 11:53:50;;;;;;;4.50;2.83;;;10.60;99.90;;;;;;5053916;28;20037;-60
2024/02/04 11:56:20;;;;;;;3.45;2.88;;;10.60;99.90;;;;;;5057689;28;20037;-61
2024/02/04 11:58:46;;;;;;;7.45;2.28;;;10.70;99.90;;;;;;5058769;28;20036;-61
2024/02/04 12:01:12;;;;;;;3.55;2.67;;;10.70;99.90;;;;;;5052418;28;20029;-60
2024/02/04 12:03:37;;;;;;;2.30;1.88;;;10.60;99.90;;;;;;5053239;28;20155;-59
2024/02/04 12:06:04;;;;;;;2.17;1.77;;;10.60;99.90;;;;;;5055877;28;20056;-60
2024/02/04 12:08:32;;;;;;;2.60;2.13;;;10.50;99.90;;;;;;5052044;28;20375;-61
2024/02/04 12:11:00;;;;;;;3.10;1.92;;;10.40;99.90;;;;;;5054800;28;20029;-59
2024/02/04 12:13:27;;;;;;;5.25;2.78;;;10.40;99.90;;;;;;5052892;28;20044;-60
2024/02/04 12:15:53;;;;;;;3.50;2.70;;;10.40;99.90;;;;;;5052742;28;20029;-60
2024/02/04 12:18:21;;;;;;;5.30;3.85;;;10.40;99.90;;;;;;5051472;28;20383;-59
2024/02/04 12:20:51;;;;;;;8.02;5.25;;;10.50;99.90;;;;;;5029150;28;20041;-61
2024/02/04 12:23:18;;;;;;;11.95;7.60;;;10.60;99.90;;;;;;5063016;28;20165;-60
2024/02/04 12:25:44;;;;;;;17.92;9.20;;;10.60;99.90;;;;;;5060067;28;20089;-60
2024/02/04 12:28:10;;;;;;;5.13;3.95;;;10.60;99.90;;;;;;5052029;28;20679;-60
2024/02/04 12:30:36;;;;;;;4.10;3.25;;;10.60;99.90;;;;;;5048478;28;20071;-60
2024/02/04 12:33:06;;;;;;;4.28;2.80;;;10.50;99.90;;;;;;5051465;28;20029;-60
2024/02/04 12:35:32;;;;;;;3.20;2.70;;;10.50;99.90;;;;;;5049805;28;20024;-60
2024/02/04 12:37:59;;;;;;;2.90;2.45;;;10.50;99.90;;;;;;5051798;28;20033;-60
2024/02/04 12:40:26;;;;;;;3.25;1.85;;;10.50;99.90;;;;;;5051329;28;20021;-60
2024/02/04 12:43:01;;;;;;;3.08;2.60;;;10.40;99.90;;;;;;5053101;28;20604;-60
2024/02/04 12:45:27;;;;;;;3.33;2.53;;;10.40;99.90;;;;;;5047774;28;20013;-60
2024/02/04 12:47:55;;;;;;;2.65;2.20;;;10.40;99.90;;;;;;5050357;28;20060;-61
2024/02/04 12:50:21;;;;;;;3.03;2.33;;;10.40;99.90;;;;;;5051204;28;20025;-60
2024/02/04 12:53:01;;;;;;;2.15;1.90;;;10.40;99.90;;;;;;5053118;28;20095;-60